Guo Mao 1 — 5VBT9 — position and weather

sailwx.info

Track history (hours):
 
Tides and Currents Weather Stations Pressure Air Temp Water Temp Dewpoint Dewpoint Depression Visibility Wind Speed Wind Dir Waves Ship Positions

Guo Mao 1

Last reported at 2018-Jun-09 17:56 UTC. Time now 2018-Jun-21 10:06 UTC.
Position N 34°28' E 134°31'.
Warning: this ship's position is 11 days out of date.

Length 99 m; draft 5.7 m.

Type: Cargo ship. MMSI: 671307000.

Date/timePositionNaut miles runAvg speedWind from/ knotsBaromVisibWave heightAir tempDewpointWater temp
2018-Jun-09 17:56N 34°28' E 134°31'910.1
2018-Jun-09 17:04N 34°31' E 134°41'1 9.9
2018-Jun-09 16:57N 34°32' E 134°42'18 8.1
2018-Jun-09 14:44N 34°36' E 135°03'2 7.1
2018-Jun-09 14:30N 34°35' E 135°05'4 7.4
2018-Jun-09 14:00N 34°32' E 135°05'4 8.6
2018-Jun-09 13:30N 34°27' E 135°03'4 8.0
2018-Jun-09 13:00N 34°24' E 135°03'4 7.5
2018-Jun-09 12:30N 34°20' E 135°01'4 7.7
2018-Jun-09 12:00N 34°16' E 134°59'4 8.3
2018-Jun-09 11:30N 34°12' E 134°59'5 8.5
2018-Jun-09 10:58N 34°08' E 135°00'4 8.6
2018-Jun-09 10:29N 34°04' E 135°00'  
2018-Jun-02 13:17N 35°01' E 139°43'3 9.6
2018-Jun-02 13:00N 35°04' E 139°44'5 9.3
2018-Jun-02 12:30N 35°08' E 139°45'5 9.5
2018-Jun-02 12:00N 35°13' E 139°46'5 9.3
2018-Jun-02 11:30N 35°17' E 139°45'5 9.3
2018-Jun-02 11:00N 35°21' E 139°42'4 8.5
2018-Jun-02 10:30N 35°25' E 139°45'4 8.7
2018-Jun-02 10:00N 35°28' E 139°49'4 8.8
2018-Jun-02 09:30N 35°31' E 139°53'1 0.1
2018-Jun-01 17:43N 35°31' E 139°54'3 9.7
2018-Jun-01 17:22N 35°29' E 139°52'6 9.5
2018-Jun-01 16:43N 35°24' E 139°46'2 9.7
2018-Jun-01 16:30N 35°22' E 139°45'4 9.0
2018-Jun-01 16:00N 35°18' E 139°45'4 8.8
2018-Jun-01 15:30N 35°14' E 139°47'5 9.1
2018-Jun-01 15:00N 35°09' E 139°46'5 9.4
2018-Jun-01 14:30N 35°05' E 139°43'5 9.5
2018-Jun-01 13:58N 35°02' E 139°39'  
Track history (hours):
 
Tides and Currents Weather Stations Pressure Air Temp Water Temp Dewpoint Dewpoint Depression Visibility Wind Speed Wind Dir Waves Ship Positions

Guo Mao 1

Last reported at 2018-Jun-09 17:56 UTC. Time now 2018-Jun-21 10:06 UTC.
Position N 34°28' E 134°31'.
Warning: this ship's position is 11 days out of date.

Length 99 m; draft 5.7 m.

Type: Cargo ship. MMSI: 671307000.

Date/timePositionNaut miles runAvg speedWind from/ knotsBaromVisibWave heightAir tempDewpointWater temp
2018-Jun-09 17:56N 34°28' E 134°31'910.1
2018-Jun-09 17:04N 34°31' E 134°41'1 9.9
2018-Jun-09 16:57N 34°32' E 134°42'18 8.1
2018-Jun-09 14:44N 34°36' E 135°03'2 7.1
2018-Jun-09 14:30N 34°35' E 135°05'4 7.4
2018-Jun-09 14:00N 34°32' E 135°05'4 8.6
2018-Jun-09 13:30N 34°27' E 135°03'4 8.0
2018-Jun-09 13:00N 34°24' E 135°03'4 7.5
2018-Jun-09 12:30N 34°20' E 135°01'4 7.7
2018-Jun-09 12:00N 34°16' E 134°59'4 8.3
2018-Jun-09 11:30N 34°12' E 134°59'5 8.5
2018-Jun-09 10:58N 34°08' E 135°00'4 8.6
2018-Jun-09 10:29N 34°04' E 135°00'  
2018-Jun-02 13:17N 35°01' E 139°43'3 9.6
2018-Jun-02 13:00N 35°04' E 139°44'5 9.3
2018-Jun-02 12:30N 35°08' E 139°45'5 9.5
2018-Jun-02 12:00N 35°13' E 139°46'5 9.3
2018-Jun-02 11:30N 35°17' E 139°45'5 9.3
2018-Jun-02 11:00N 35°21' E 139°42'4 8.5
2018-Jun-02 10:30N 35°25' E 139°45'4 8.7
2018-Jun-02 10:00N 35°28' E 139°49'4 8.8
2018-Jun-02 09:30N 35°31' E 139°53'1 0.1
2018-Jun-01 17:43N 35°31' E 139°54'3 9.7
2018-Jun-01 17:22N 35°29' E 139°52'6 9.5
2018-Jun-01 16:43N 35°24' E 139°46'2 9.7
2018-Jun-01 16:30N 35°22' E 139°45'4 9.0
2018-Jun-01 16:00N 35°18' E 139°45'4 8.8
2018-Jun-01 15:30N 35°14' E 139°47'5 9.1
2018-Jun-01 15:00N 35°09' E 139°46'5 9.4
2018-Jun-01 14:30N 35°05' E 139°43'5 9.5
2018-Jun-01 13:58N 35°02' E 139°39'  

Dump ship's entire track history